sensor_id;sensor_type;location;lat;lon;timestamp;P1;durP1;ratioP1;P2;durP2;ratioP2
8580;SDS011;4328;48.622;9.230;2022-07-29T00:00:43;6.67;;;6.17;;
8580;SDS011;4328;48.622;9.230;2022-07-29T00:03:10;6.50;;;5.90;;
8580;SDS011;4328;48.622;9.230;2022-07-29T00:05:38;6.40;;;5.80;;
8580;SDS011;4328;48.622;9.230;2022-07-29T00:08:06;8.57;;;6.30;;
8580;SDS011;4328;48.622;9.230;2022-07-29T00:10:33;6.30;;;5.90;;
8580;SDS011;4328;48.622;9.230;2022-07-29T00:13:00;5.80;;;5.40;;
8580;SDS011;4328;48.622;9.230;2022-07-29T00:15:28;6.67;;;6.10;;
8580;SDS011;4328;48.622;9.230;2022-07-29T00:17:54;6.80;;;6.30;;
8580;SDS011;4328;48.622;9.230;2022-07-29T00:20:21;6.37;;;5.97;;
8580;SDS011;4328;48.622;9.230;2022-07-29T00:22:48;6.43;;;6.00;;
8580;SDS011;4328;48.622;9.230;2022-07-29T00:25:16;6.60;;;6.10;;
8580;SDS011;4328;48.622;9.230;2022-07-29T00:27:43;6.80;;;6.10;;
8580;SDS011;4328;48.622;9.230;2022-07-29T00:30:10;6.90;;;6.40;;
8580;SDS011;4328;48.622;9.230;2022-07-29T00:32:38;8.20;;;6.30;;
8580;SDS011;4328;48.622;9.230;2022-07-29T00:35:05;6.30;;;5.90;;
8580;SDS011;4328;48.622;9.230;2022-07-29T00:37:50;6.27;;;5.87;;
8580;SDS011;4328;48.622;9.230;2022-07-29T00:40:18;6.57;;;6.10;;
8580;SDS011;4328;48.622;9.230;2022-07-29T00:42:44;6.13;;;5.73;;
8580;SDS011;4328;48.622;9.230;2022-07-29T00:45:13;6.03;;;5.53;;
8580;SDS011;4328;48.622;9.230;2022-07-29T00:47:40;8.27;;;6.60;;
8580;SDS011;4328;48.622;9.230;2022-07-29T00:50:07;7.03;;;6.43;;
8580;SDS011;4328;48.622;9.230;2022-07-29T00:52:37;6.37;;;5.83;;
8580;SDS011;4328;48.622;9.230;2022-07-29T00:55:06;6.97;;;6.47;;
8580;SDS011;4328;48.622;9.230;2022-07-29T00:57:35;6.30;;;5.80;;
8580;SDS011;4328;48.622;9.230;2022-07-29T01:00:03;6.30;;;5.80;;
8580;SDS011;4328;48.622;9.230;2022-07-29T01:02:31;7.50;;;6.80;;
8580;SDS011;4328;48.622;9.230;2022-07-29T01:04:58;6.73;;;6.10;;
8580;SDS011;4328;48.622;9.230;2022-07-29T01:07:25;6.20;;;5.77;;
8580;SDS011;4328;48.622;9.230;2022-07-29T01:09:53;6.57;;;6.07;;
8580;SDS011;4328;48.622;9.230;2022-07-29T01:12:21;6.83;;;6.20;;
8580;SDS011;4328;48.622;9.230;2022-07-29T01:14:52;7.30;;;6.70;;
8580;SDS011;4328;48.622;9.230;2022-07-29T01:17:21;7.47;;;6.77;;
8580;SDS011;4328;48.622;9.230;2022-07-29T01:19:52;7.27;;;6.73;;
8580;SDS011;4328;48.622;9.230;2022-07-29T01:22:25;6.73;;;6.27;;
8580;SDS011;4328;48.622;9.230;2022-07-29T01:25:03;8.60;;;6.60;;
8580;SDS011;4328;48.622;9.230;2022-07-29T01:27:41;7.40;;;6.80;;
8580;SDS011;4328;48.622;9.230;2022-07-29T01:30:19;6.70;;;6.30;;
8580;SDS011;4328;48.622;9.230;2022-07-29T01:32:50;6.47;;;5.97;;
8580;SDS011;4328;48.622;9.230;2022-07-29T01:35:23;6.30;;;5.90;;
8580;SDS011;4328;48.622;9.230;2022-07-29T01:37:55;6.30;;;5.90;;
8580;SDS011;4328;48.622;9.230;2022-07-29T01:40:28;6.03;;;5.63;;
8580;SDS011;4328;48.622;9.230;2022-07-29T01:43:02;5.93;;;5.53;;
8580;SDS011;4328;48.622;9.230;2022-07-29T01:45:39;5.57;;;5.17;;
8580;SDS011;4328;48.622;9.230;2022-07-29T01:48:10;6.17;;;5.57;;
8580;SDS011;4328;48.622;9.230;2022-07-29T01:50:44;7.47;;;5.70;;
8580;SDS011;4328;48.622;9.230;2022-07-29T01:53:15;7.10;;;5.60;;
8580;SDS011;4328;48.622;9.230;2022-07-29T01:55:49;6.47;;;5.87;;
8580;SDS011;4328;48.622;9.230;2022-07-29T01:58:17;6.20;;;5.50;;
8580;SDS011;4328;48.622;9.230;2022-07-29T02:00:46;6.63;;;6.13;;
8580;SDS011;4328;48.622;9.230;2022-07-29T02:03:15;6.50;;;5.90;;
8580;SDS011;4328;48.622;9.230;2022-07-29T02:05:43;6.47;;;5.87;;
8580;SDS011;4328;48.622;9.230;2022-07-29T02:08:13;6.53;;;5.53;;
8580;SDS011;4328;48.622;9.230;2022-07-29T02:10:42;6.10;;;5.63;;
8580;SDS011;4328;48.622;9.230;2022-07-29T02:13:11;7.07;;;5.67;;
8580;SDS011;4328;48.622;9.230;2022-07-29T02:15:39;7.43;;;5.57;;
8580;SDS011;4328;48.622;9.230;2022-07-29T02:18:11;5.57;;;5.27;;
8580;SDS011;4328;48.622;9.230;2022-07-29T02:20:40;5.53;;;5.13;;
8580;SDS011;4328;48.622;9.230;2022-07-29T02:23:11;5.10;;;4.73;;
8580;SDS011;4328;48.622;9.230;2022-07-29T02:25:41;5.63;;;4.03;;
8580;SDS011;4328;48.622;9.230;2022-07-29T02:28:09;5.57;;;5.27;;
8580;SDS011;4328;48.622;9.230;2022-07-29T02:30:36;5.70;;;5.23;;
8580;SDS011;4328;48.622;9.230;2022-07-29T02:33:07;5.40;;;5.03;;
8580;SDS011;4328;48.622;9.230;2022-07-29T02:35:37;5.17;;;4.87;;
8580;SDS011;4328;48.622;9.230;2022-07-29T02:38:06;5.30;;;4.93;;
8580;SDS011;4328;48.622;9.230;2022-07-29T02:40:51;5.63;;;5.23;;
8580;SDS011;4328;48.622;9.230;2022-07-29T02:43:19;5.33;;;4.83;;
8580;SDS011;4328;48.622;9.230;2022-07-29T02:45:47;5.60;;;5.10;;
8580;SDS011;4328;48.622;9.230;2022-07-29T02:48:19;6.13;;;5.00;;
8580;SDS011;4328;48.622;9.230;2022-07-29T02:50:55;4.90;;;4.53;;
8580;SDS011;4328;48.622;9.230;2022-07-29T02:53:27;5.23;;;4.83;;
8580;SDS011;4328;48.622;9.230;2022-07-29T02:55:59;4.60;;;4.30;;
8580;SDS011;4328;48.622;9.230;2022-07-29T02:58:30;4.60;;;4.30;;
8580;SDS011;4328;48.622;9.230;2022-07-29T03:01:01;4.80;;;4.50;;
8580;SDS011;4328;48.622;9.230;2022-07-29T03:03:31;4.90;;;4.50;;
8580;SDS011;4328;48.622;9.230;2022-07-29T03:06:01;4.50;;;4.20;;
8580;SDS011;4328;48.622;9.230;2022-07-29T03:08:30;4.47;;;4.17;;
8580;SDS011;4328;48.622;9.230;2022-07-29T03:10:58;4.87;;;4.47;;
8580;SDS011;4328;48.622;9.230;2022-07-29T03:13:26;5.07;;;4.63;;
8580;SDS011;4328;48.622;9.230;2022-07-29T03:15:53;5.70;;;4.90;;
8580;SDS011;4328;48.622;9.230;2022-07-29T03:18:21;4.73;;;4.30;;
8580;SDS011;4328;48.622;9.230;2022-07-29T03:20:48;4.67;;;4.37;;
8580;SDS011;4328;48.622;9.230;2022-07-29T03:23:19;6.50;;;4.70;;
8580;SDS011;4328;48.622;9.230;2022-07-29T03:25:47;5.50;;;4.30;;
8580;SDS011;4328;48.622;9.230;2022-07-29T03:28:14;4.60;;;4.20;;
8580;SDS011;4328;48.622;9.230;2022-07-29T03:30:41;5.13;;;4.37;;
8580;SDS011;4328;48.622;9.230;2022-07-29T03:33:08;4.60;;;4.30;;
8580;SDS011;4328;48.622;9.230;2022-07-29T03:35:34;4.83;;;4.43;;
8580;SDS011;4328;48.622;9.230;2022-07-29T03:38:01;5.00;;;4.70;;
8580;SDS011;4328;48.622;9.230;2022-07-29T03:40:30;4.87;;;4.47;;
8580;SDS011;4328;48.622;9.230;2022-07-29T03:43:00;4.80;;;4.50;;
8580;SDS011;4328;48.622;9.230;2022-07-29T03:45:28;5.03;;;4.43;;
8580;SDS011;4328;48.622;9.230;2022-07-29T03:48:00;4.73;;;4.17;;
8580;SDS011;4328;48.622;9.230;2022-07-29T03:50:31;4.57;;;4.27;;
8580;SDS011;4328;48.622;9.230;2022-07-29T03:53:00;4.80;;;4.50;;
8580;SDS011;4328;48.622;9.230;2022-07-29T03:55:29;4.70;;;4.40;;
8580;SDS011;4328;48.622;9.230;2022-07-29T03:58:02;4.93;;;4.40;;
8580;SDS011;4328;48.622;9.230;2022-07-29T04:00:30;5.53;;;4.40;;
8580;SDS011;4328;48.622;9.230;2022-07-29T04:02:58;5.30;;;4.83;;
8580;SDS011;4328;48.622;9.230;2022-07-29T04:05:25;5.17;;;4.70;;
8580;SDS011;4328;48.622;9.230;2022-07-29T04:07:51;5.00;;;4.50;;
8580;SDS011;4328;48.622;9.230;2022-07-29T04:10:18;5.00;;;4.60;;
8580;SDS011;4328;48.622;9.230;2022-07-29T04:12:46;4.80;;;4.40;;
8580;SDS011;4328;48.622;9.230;2022-07-29T04:15:13;5.30;;;4.70;;
8580;SDS011;4328;48.622;9.230;2022-07-29T04:17:39;5.03;;;4.50;;
8580;SDS011;4328;48.622;9.230;2022-07-29T04:20:06;4.60;;;4.20;;
8580;SDS011;4328;48.622;9.230;2022-07-29T04:22:34;4.77;;;4.47;;
8580;SDS011;4328;48.622;9.230;2022-07-29T04:25:00;6.87;;;4.73;;
8580;SDS011;4328;48.622;9.230;2022-07-29T04:27:27;5.07;;;4.67;;
8580;SDS011;4328;48.622;9.230;2022-07-29T04:29:55;5.10;;;4.73;;
8580;SDS011;4328;48.622;9.230;2022-07-29T04:32:21;4.83;;;4.53;;
8580;SDS011;4328;48.622;9.230;2022-07-29T04:34:48;6.27;;;4.43;;
8580;SDS011;4328;48.622;9.230;2022-07-29T04:37:14;4.73;;;4.33;;
8580;SDS011;4328;48.622;9.230;2022-07-29T04:39:41;5.07;;;4.77;;
8580;SDS011;4328;48.622;9.230;2022-07-29T04:42:08;7.07;;;4.80;;
8580;SDS011;4328;48.622;9.230;2022-07-29T04:44:34;5.20;;;4.70;;
8580;SDS011;4328;48.622;9.230;2022-07-29T04:47:02;5.30;;;4.90;;
8580;SDS011;4328;48.622;9.230;2022-07-29T04:49:29;4.63;;;4.23;;
8580;SDS011;4328;48.622;9.230;2022-07-29T04:51:56;4.60;;;4.30;;
8580;SDS011;4328;48.622;9.230;2022-07-29T04:54:23;5.33;;;4.23;;
8580;SDS011;4328;48.622;9.230;2022-07-29T04:56:49;4.60;;;4.30;;
8580;SDS011;4328;48.622;9.230;2022-07-29T04:59:16;4.70;;;4.40;;
8580;SDS011;4328;48.622;9.230;2022-07-29T05:01:42;4.93;;;4.53;;
8580;SDS011;4328;48.622;9.230;2022-07-29T05:04:10;5.73;;;4.80;;
8580;SDS011;4328;48.622;9.230;2022-07-29T05:06:37;5.33;;;4.50;;
8580;SDS011;4328;48.622;9.230;2022-07-29T05:09:03;5.93;;;4.80;;
8580;SDS011;4328;48.622;9.230;2022-07-29T05:11:30;7.20;;;4.77;;
8580;SDS011;4328;48.622;9.230;2022-07-29T05:13:56;5.03;;;4.63;;
8580;SDS011;4328;48.622;9.230;2022-07-29T05:16:23;5.40;;;4.43;;
8580;SDS011;4328;48.622;9.230;2022-07-29T05:18:50;4.80;;;4.50;;
8580;SDS011;4328;48.622;9.230;2022-07-29T05:21:18;4.80;;;4.47;;
8580;SDS011;4328;48.622;9.230;2022-07-29T05:23:44;4.67;;;4.37;;
8580;SDS011;4328;48.622;9.230;2022-07-29T05:26:11;4.90;;;4.40;;
8580;SDS011;4328;48.622;9.230;2022-07-29T05:28:38;4.70;;;4.40;;
8580;SDS011;4328;48.622;9.230;2022-07-29T05:31:04;4.77;;;4.37;;
8580;SDS011;4328;48.622;9.230;2022-07-29T05:33:31;4.60;;;4.23;;
8580;SDS011;4328;48.622;9.230;2022-07-29T05:35:57;4.70;;;4.40;;
8580;SDS011;4328;48.622;9.230;2022-07-29T05:38:25;4.43;;;4.13;;
8580;SDS011;4328;48.622;9.230;2022-07-29T05:40:52;4.30;;;4.00;;
8580;SDS011;4328;48.622;9.230;2022-07-29T05:43:18;5.00;;;4.37;;
8580;SDS011;4328;48.622;9.230;2022-07-29T05:45:45;4.60;;;4.27;;
8580;SDS011;4328;48.622;9.230;2022-07-29T05:48:12;4.47;;;4.13;;
8580;SDS011;4328;48.622;9.230;2022-07-29T05:50:39;4.53;;;4.23;;
8580;SDS011;4328;48.622;9.230;2022-07-29T05:53:05;4.07;;;3.70;;
8580;SDS011;4328;48.622;9.230;2022-07-29T05:55:33;4.20;;;3.93;;
8580;SDS011;4328;48.622;9.230;2022-07-29T05:58:00;3.70;;;3.50;;
8580;SDS011;4328;48.622;9.230;2022-07-29T06:00:26;4.37;;;3.67;;
8580;SDS011;4328;48.622;9.230;2022-07-29T06:02:53;3.43;;;3.13;;
8580;SDS011;4328;48.622;9.230;2022-07-29T06:05:20;3.67;;;3.47;;
8580;SDS011;4328;48.622;9.230;2022-07-29T06:07:46;4.17;;;3.77;;
8580;SDS011;4328;48.622;9.230;2022-07-29T06:10:13;3.83;;;3.50;;
8580;SDS011;4328;48.622;9.230;2022-07-29T06:12:41;3.67;;;3.47;;
8580;SDS011;4328;48.622;9.230;2022-07-29T06:15:08;3.63;;;3.43;;
8580;SDS011;4328;48.622;9.230;2022-07-29T06:17:35;3.93;;;3.63;;
8580;SDS011;4328;48.622;9.230;2022-07-29T06:20:02;3.80;;;3.50;;
8580;SDS011;4328;48.622;9.230;2022-07-29T06:22:30;4.97;;;3.60;;
8580;SDS011;4328;48.622;9.230;2022-07-29T06:24:57;3.30;;;3.10;;
8580;SDS011;4328;48.622;9.230;2022-07-29T06:27:23;4.93;;;3.30;;
8580;SDS011;4328;48.622;9.230;2022-07-29T06:29:51;4.47;;;3.17;;
8580;SDS011;4328;48.622;9.230;2022-07-29T06:32:19;3.87;;;3.37;;
8580;SDS011;4328;48.622;9.230;2022-07-29T06:34:46;3.80;;;3.40;;
8580;SDS011;4328;48.622;9.230;2022-07-29T06:37:13;3.40;;;3.10;;
8580;SDS011;4328;48.622;9.230;2022-07-29T06:39:40;3.63;;;3.00;;
8580;SDS011;4328;48.622;9.230;2022-07-29T06:42:06;3.33;;;3.03;;
8580;SDS011;4328;48.622;9.230;2022-07-29T06:44:33;3.07;;;2.87;;
8580;SDS011;4328;48.622;9.230;2022-07-29T06:47:01;3.80;;;2.63;;
8580;SDS011;4328;48.622;9.230;2022-07-29T06:49:27;2.80;;;2.60;;
8580;SDS011;4328;48.622;9.230;2022-07-29T06:51:54;2.90;;;2.70;;
8580;SDS011;4328;48.622;9.230;2022-07-29T06:54:21;2.67;;;2.50;;
8580;SDS011;4328;48.622;9.230;2022-07-29T06:56:48;2.77;;;2.63;;
8580;SDS011;4328;48.622;9.230;2022-07-29T06:59:14;2.90;;;2.70;;
8580;SDS011;4328;48.622;9.230;2022-07-29T07:01:41;2.67;;;2.47;;
8580;SDS011;4328;48.622;9.230;2022-07-29T07:04:10;4.50;;;3.10;;
8580;SDS011;4328;48.622;9.230;2022-07-29T07:06:38;2.80;;;2.60;;
8580;SDS011;4328;48.622;9.230;2022-07-29T07:09:05;3.30;;;2.50;;
8580;SDS011;4328;48.622;9.230;2022-07-29T07:11:32;2.60;;;2.40;;
8580;SDS011;4328;48.622;9.230;2022-07-29T07:13:58;2.73;;;2.53;;
8580;SDS011;4328;48.622;9.230;2022-07-29T07:16:25;4.33;;;3.00;;
8580;SDS011;4328;48.622;9.230;2022-07-29T07:18:51;5.10;;;3.07;;
8580;SDS011;4328;48.622;9.230;2022-07-29T07:21:19;2.50;;;2.30;;
8580;SDS011;4328;48.622;9.230;2022-07-29T07:23:46;2.77;;;2.57;;
8580;SDS011;4328;48.622;9.230;2022-07-29T07:26:13;3.57;;;2.63;;
8580;SDS011;4328;48.622;9.230;2022-07-29T07:28:39;2.80;;;2.60;;
8580;SDS011;4328;48.622;9.230;2022-07-29T07:31:06;2.80;;;2.47;;
8580;SDS011;4328;48.622;9.230;2022-07-29T07:33:32;3.37;;;2.60;;
8580;SDS011;4328;48.622;9.230;2022-07-29T07:35:59;2.80;;;2.60;;
8580;SDS011;4328;48.622;9.230;2022-07-29T07:38:27;4.97;;;2.83;;
8580;SDS011;4328;48.622;9.230;2022-07-29T07:40:54;3.60;;;2.57;;
8580;SDS011;4328;48.622;9.230;2022-07-29T07:43:20;3.13;;;2.80;;
8580;SDS011;4328;48.622;9.230;2022-07-29T07:45:47;2.53;;;2.33;;
8580;SDS011;4328;48.622;9.230;2022-07-29T07:48:14;2.60;;;2.40;;
8580;SDS011;4328;48.622;9.230;2022-07-29T07:50:41;2.90;;;2.57;;
8580;SDS011;4328;48.622;9.230;2022-07-29T07:53:08;4.23;;;2.40;;
8580;SDS011;4328;48.622;9.230;2022-07-29T07:55:40;2.60;;;2.40;;
8580;SDS011;4328;48.622;9.230;2022-07-29T07:58:07;3.10;;;2.80;;
8580;SDS011;4328;48.622;9.230;2022-07-29T08:00:34;3.23;;;2.67;;
8580;SDS011;4328;48.622;9.230;2022-07-29T08:03:00;2.90;;;2.53;;
8580;SDS011;4328;48.622;9.230;2022-07-29T08:05:27;3.53;;;2.87;;
8580;SDS011;4328;48.622;9.230;2022-07-29T08:07:54;2.80;;;2.57;;
8580;SDS011;4328;48.622;9.230;2022-07-29T08:10:20;3.47;;;2.70;;
8580;SDS011;4328;48.622;9.230;2022-07-29T08:13:03;2.77;;;2.57;;
8580;SDS011;4328;48.622;9.230;2022-07-29T08:15:29;4.67;;;2.93;;
8580;SDS011;4328;48.622;9.230;2022-07-29T08:17:56;2.80;;;2.50;;
8580;SDS011;4328;48.622;9.230;2022-07-29T08:20:22;3.53;;;2.80;;
8580;SDS011;4328;48.622;9.230;2022-07-29T08:22:49;4.05;;;3.17;;
8580;SDS011;4328;48.622;9.230;2022-07-29T08:25:16;3.50;;;3.20;;
8580;SDS011;4328;48.622;9.230;2022-07-29T08:27:45;3.43;;;3.13;;
8580;SDS011;4328;48.622;9.230;2022-07-29T08:30:13;2.80;;;2.60;;
8580;SDS011;4328;48.622;9.230;2022-07-29T08:32:40;3.17;;;2.60;;
8580;SDS011;4328;48.622;9.230;2022-07-29T08:35:06;3.20;;;2.90;;
8580;SDS011;4328;48.622;9.230;2022-07-29T08:37:34;3.60;;;3.40;;
8580;SDS011;4328;48.622;9.230;2022-07-29T08:40:00;3.28;;;2.97;;
8580;SDS011;4328;48.622;9.230;2022-07-29T08:42:27;3.50;;;3.20;;
8580;SDS011;4328;48.622;9.230;2022-07-29T08:44:54;3.80;;;3.17;;
8580;SDS011;4328;48.622;9.230;2022-07-29T08:47:22;3.28;;;3.08;;
8580;SDS011;4328;48.622;9.230;2022-07-29T08:49:51;3.30;;;3.00;;
8580;SDS011;4328;48.622;9.230;2022-07-29T08:52:18;3.28;;;2.97;;
8580;SDS011;4328;48.622;9.230;2022-07-29T08:54:45;3.25;;;3.03;;
8580;SDS011;4328;48.622;9.230;2022-07-29T08:57:13;4.63;;;3.22;;
8580;SDS011;4328;48.622;9.230;2022-07-29T08:59:40;3.50;;;3.30;;
8580;SDS011;4328;48.622;9.230;2022-07-29T09:02:11;3.55;;;3.25;;
8580;SDS011;4328;48.622;9.230;2022-07-29T09:04:46;4.95;;;3.17;;
8580;SDS011;4328;48.622;9.230;2022-07-29T09:07:14;3.28;;;3.00;;
8580;SDS011;4328;48.622;9.230;2022-07-29T09:09:41;3.30;;;3.00;;
8580;SDS011;4328;48.622;9.230;2022-07-29T09:12:08;3.47;;;3.17;;
8580;SDS011;4328;48.622;9.230;2022-07-29T09:14:36;3.63;;;3.30;;
8580;SDS011;4328;48.622;9.230;2022-07-29T09:17:03;3.28;;;3.03;;
8580;SDS011;4328;48.622;9.230;2022-07-29T09:19:30;3.67;;;3.38;;
8580;SDS011;4328;48.622;9.230;2022-07-29T09:22:01;4.18;;;3.55;;
8580;SDS011;4328;48.622;9.230;2022-07-29T09:24:37;3.30;;;3.10;;
8580;SDS011;4328;48.622;9.230;2022-07-29T09:27:09;3.40;;;3.20;;
8580;SDS011;4328;48.622;9.230;2022-07-29T09:29:37;4.43;;;3.63;;
8580;SDS011;4328;48.622;9.230;2022-07-29T09:32:06;3.60;;;3.30;;
8580;SDS011;4328;48.622;9.230;2022-07-29T09:34:35;4.57;;;3.45;;
8580;SDS011;4328;48.622;9.230;2022-07-29T09:37:03;3.70;;;3.40;;
8580;SDS011;4328;48.622;9.230;2022-07-29T09:39:31;3.78;;;3.30;;
8580;SDS011;4328;48.622;9.230;2022-07-29T09:42:00;3.47;;;3.17;;
8580;SDS011;4328;48.622;9.230;2022-07-29T09:44:40;3.70;;;3.10;;
8580;SDS011;4328;48.622;9.230;2022-07-29T09:47:08;5.00;;;4.47;;
8580;SDS011;4328;48.622;9.230;2022-07-29T09:49:35;4.57;;;3.25;;
8580;SDS011;4328;48.622;9.230;2022-07-29T09:52:17;4.78;;;3.75;;
8580;SDS011;4328;48.622;9.230;2022-07-29T09:54:43;3.47;;;3.28;;
8580;SDS011;4328;48.622;9.230;2022-07-29T09:57:21;3.67;;;3.38;;
8580;SDS011;4328;48.622;9.230;2022-07-29T09:59:55;3.95;;;3.50;;
8580;SDS011;4328;48.622;9.230;2022-07-29T10:02:22;3.92;;;3.63;;
8580;SDS011;4328;48.622;9.230;2022-07-29T10:04:54;3.88;;;3.58;;
8580;SDS011;4328;48.622;9.230;2022-07-29T10:07:22;6.38;;;3.70;;
8580;SDS011;4328;48.622;9.230;2022-07-29T10:09:52;4.60;;;3.88;;
8580;SDS011;4328;48.622;9.230;2022-07-29T10:12:19;4.07;;;3.67;;
8580;SDS011;4328;48.622;9.230;2022-07-29T10:14:46;4.32;;;3.92;;
8580;SDS011;4328;48.622;9.230;2022-07-29T10:17:13;4.25;;;3.80;;
8580;SDS011;4328;48.622;9.230;2022-07-29T10:19:41;4.07;;;3.45;;
8580;SDS011;4328;48.622;9.230;2022-07-29T10:22:09;4.25;;;3.75;;
8580;SDS011;4328;48.622;9.230;2022-07-29T10:24:38;3.83;;;3.40;;
8580;SDS011;4328;48.622;9.230;2022-07-29T10:27:05;3.78;;;3.47;;
8580;SDS011;4328;48.622;9.230;2022-07-29T10:29:33;4.07;;;3.50;;
8580;SDS011;4328;48.622;9.230;2022-07-29T10:34:57;4.40;;;3.95;;
8580;SDS011;4328;48.622;9.230;2022-07-29T10:37:37;5.00;;;3.80;;
8580;SDS011;4328;48.622;9.230;2022-07-29T10:40:24;4.38;;;3.97;;
8580;SDS011;4328;48.622;9.230;2022-07-29T10:43:17;4.00;;;3.60;;
8580;SDS011;4328;48.622;9.230;2022-07-29T10:45:48;3.95;;;3.55;;
8580;SDS011;4328;48.622;9.230;2022-07-29T10:48:20;4.18;;;3.45;;
8580;SDS011;4328;48.622;9.230;2022-07-29T10:50:54;3.70;;;3.40;;
8580;SDS011;4328;48.622;9.230;2022-07-29T10:53:23;5.40;;;3.38;;
8580;SDS011;4328;48.622;9.230;2022-07-29T10:56:23;3.70;;;3.40;;
8580;SDS011;4328;48.622;9.230;2022-07-29T11:01:53;3.80;;;3.50;;
8580;SDS011;4328;48.622;9.230;2022-07-29T11:07:24;4.05;;;3.60;;
8580;SDS011;4328;48.622;9.230;2022-07-29T11:12:51;4.70;;;3.40;;
8580;SDS011;4328;48.622;9.230;2022-07-29T11:15:18;4.40;;;3.53;;
8580;SDS011;4328;48.622;9.230;2022-07-29T11:18:03;3.78;;;3.50;;
8580;SDS011;4328;48.622;9.230;2022-07-29T11:20:30;5.53;;;3.60;;
8580;SDS011;4328;48.622;9.230;2022-07-29T11:22:58;5.47;;;3.47;;
8580;SDS011;4328;48.622;9.230;2022-07-29T11:25:25;3.80;;;3.50;;
8580;SDS011;4328;48.622;9.230;2022-07-29T11:27:54;3.80;;;3.50;;
8580;SDS011;4328;48.622;9.230;2022-07-29T11:30:49;4.15;;;3.42;;
8580;SDS011;4328;48.622;9.230;2022-07-29T11:33:29;4.93;;;3.67;;
8580;SDS011;4328;48.622;9.230;2022-07-29T11:36:08;6.47;;;3.40;;
8580;SDS011;4328;48.622;9.230;2022-07-29T11:38:36;4.07;;;3.55;;
8580;SDS011;4328;48.622;9.230;2022-07-29T11:43:56;11.90;;;5.75;;
8580;SDS011;4328;48.622;9.230;2022-07-29T11:46:43;7.75;;;4.22;;
8580;SDS011;4328;48.622;9.230;2022-07-29T11:49:11;3.47;;;3.20;;
8580;SDS011;4328;48.622;9.230;2022-07-29T11:51:38;4.27;;;3.00;;
8580;SDS011;4328;48.622;9.230;2022-07-29T11:54:05;5.73;;;3.50;;
8580;SDS011;4328;48.622;9.230;2022-07-29T11:56:36;4.00;;;3.30;;
8580;SDS011;4328;48.622;9.230;2022-07-29T11:59:10;3.10;;;2.80;;
8580;SDS011;4328;48.622;9.230;2022-07-29T12:01:36;3.23;;;2.93;;
8580;SDS011;4328;48.622;9.230;2022-07-29T12:04:17;3.93;;;3.20;;
8580;SDS011;4328;48.622;9.230;2022-07-29T12:06:48;4.33;;;3.00;;
8580;SDS011;4328;48.622;9.230;2022-07-29T12:09:15;3.13;;;2.83;;
8580;SDS011;4328;48.622;9.230;2022-07-29T12:11:42;6.63;;;3.10;;
8580;SDS011;4328;48.622;9.230;2022-07-29T12:14:10;5.50;;;3.30;;
8580;SDS011;4328;48.622;9.230;2022-07-29T12:16:50;3.37;;;3.07;;
8580;SDS011;4328;48.622;9.230;2022-07-29T12:19:17;4.53;;;2.80;;
8580;SDS011;4328;48.622;9.230;2022-07-29T12:21:44;5.73;;;3.00;;
8580;SDS011;4328;48.622;9.230;2022-07-29T12:24:11;2.93;;;2.70;;
8580;SDS011;4328;48.622;9.230;2022-07-29T12:26:48;2.90;;;2.70;;
8580;SDS011;4328;48.622;9.230;2022-07-29T12:29:16;5.17;;;3.80;;
8580;SDS011;4328;48.622;9.230;2022-07-29T12:31:43;3.03;;;2.80;;
8580;SDS011;4328;48.622;9.230;2022-07-29T12:34:11;3.87;;;2.93;;
8580;SDS011;4328;48.622;9.230;2022-07-29T12:36:39;6.67;;;3.80;;
8580;SDS011;4328;48.622;9.230;2022-07-29T12:39:07;7.10;;;3.70;;
8580;SDS011;4328;48.622;9.230;2022-07-29T12:41:35;3.60;;;3.30;;
8580;SDS011;4328;48.622;9.230;2022-07-29T12:44:01;3.90;;;3.10;;
8580;SDS011;4328;48.622;9.230;2022-07-29T12:46:30;4.93;;;3.90;;
8580;SDS011;4328;48.622;9.230;2022-07-29T12:48:56;7.43;;;4.20;;
8580;SDS011;4328;48.622;9.230;2022-07-29T12:51:32;7.07;;;4.00;;
8580;SDS011;4328;48.622;9.230;2022-07-29T12:54:02;6.13;;;4.13;;
8580;SDS011;4328;48.622;9.230;2022-07-29T12:56:31;6.67;;;4.20;;
8580;SDS011;4328;48.622;9.230;2022-07-29T12:58:57;5.90;;;3.90;;
8580;SDS011;4328;48.622;9.230;2022-07-29T13:01:24;4.30;;;3.90;;
8580;SDS011;4328;48.622;9.230;2022-07-29T13:03:54;4.53;;;4.07;;
8580;SDS011;4328;48.622;9.230;2022-07-29T13:06:32;5.70;;;3.93;;
8580;SDS011;4328;48.622;9.230;2022-07-29T13:09:03;6.90;;;4.53;;
8580;SDS011;4328;48.622;9.230;2022-07-29T13:11:36;4.67;;;3.93;;
8580;SDS011;4328;48.622;9.230;2022-07-29T13:14:06;5.60;;;4.43;;
8580;SDS011;4328;48.622;9.230;2022-07-29T13:16:34;4.17;;;3.80;;
8580;SDS011;4328;48.622;9.230;2022-07-29T13:19:07;5.23;;;4.70;;
8580;SDS011;4328;48.622;9.230;2022-07-29T13:21:36;3.90;;;3.60;;
8580;SDS011;4328;48.622;9.230;2022-07-29T13:24:04;5.40;;;4.17;;
8580;SDS011;4328;48.622;9.230;2022-07-29T13:26:32;4.13;;;3.73;;
8580;SDS011;4328;48.622;9.230;2022-07-29T13:28:59;4.20;;;3.77;;
8580;SDS011;4328;48.622;9.230;2022-07-29T13:31:25;4.53;;;4.13;;
8580;SDS011;4328;48.622;9.230;2022-07-29T13:33:52;4.60;;;4.20;;
8580;SDS011;4328;48.622;9.230;2022-07-29T13:36:20;4.80;;;4.40;;
8580;SDS011;4328;48.622;9.230;2022-07-29T13:38:47;4.77;;;4.43;;
8580;SDS011;4328;48.622;9.230;2022-07-29T13:41:13;5.00;;;4.53;;
8580;SDS011;4328;48.622;9.230;2022-07-29T13:43:40;4.93;;;4.33;;
8580;SDS011;4328;48.622;9.230;2022-07-29T13:46:06;4.60;;;4.30;;
8580;SDS011;4328;48.622;9.230;2022-07-29T13:48:33;5.50;;;5.00;;
8580;SDS011;4328;48.622;9.230;2022-07-29T13:50:59;7.60;;;5.00;;
8580;SDS011;4328;48.622;9.230;2022-07-29T13:53:28;5.20;;;4.80;;
8580;SDS011;4328;48.622;9.230;2022-07-29T13:55:55;4.90;;;4.50;;
8580;SDS011;4328;48.622;9.230;2022-07-29T13:58:21;5.40;;;4.90;;
8580;SDS011;4328;48.622;9.230;2022-07-29T14:00:48;5.37;;;4.87;;
8580;SDS011;4328;48.622;9.230;2022-07-29T14:03:14;4.87;;;4.57;;
8580;SDS011;4328;48.622;9.230;2022-07-29T14:05:41;5.67;;;5.17;;
8580;SDS011;4328;48.622;9.230;2022-07-29T14:08:08;6.73;;;5.80;;
8580;SDS011;4328;48.622;9.230;2022-07-29T14:10:36;5.53;;;5.03;;
8580;SDS011;4328;48.622;9.230;2022-07-29T14:13:02;6.37;;;4.67;;
8580;SDS011;4328;48.622;9.230;2022-07-29T14:15:29;5.23;;;4.77;;
8580;SDS011;4328;48.622;9.230;2022-07-29T14:17:56;6.47;;;5.27;;
8580;SDS011;4328;48.622;9.230;2022-07-29T14:20:22;5.30;;;4.80;;
8580;SDS011;4328;48.622;9.230;2022-07-29T14:22:49;9.17;;;5.13;;
8580;SDS011;4328;48.622;9.230;2022-07-29T14:25:15;5.20;;;4.67;;
8580;SDS011;4328;48.622;9.230;2022-07-29T14:27:43;4.87;;;4.30;;
8580;SDS011;4328;48.622;9.230;2022-07-29T14:30:10;5.03;;;4.63;;
8580;SDS011;4328;48.622;9.230;2022-07-29T14:32:37;5.83;;;4.73;;
8580;SDS011;4328;48.622;9.230;2022-07-29T14:35:04;5.00;;;4.60;;
8580;SDS011;4328;48.622;9.230;2022-07-29T14:37:32;5.17;;;4.77;;
8580;SDS011;4328;48.622;9.230;2022-07-29T14:39:59;5.00;;;4.60;;
8580;SDS011;4328;48.622;9.230;2022-07-29T14:42:28;5.07;;;4.50;;
8580;SDS011;4328;48.622;9.230;2022-07-29T14:44:56;5.13;;;4.63;;
8580;SDS011;4328;48.622;9.230;2022-07-29T14:47:22;5.03;;;4.53;;
8580;SDS011;4328;48.622;9.230;2022-07-29T14:49:49;5.07;;;4.57;;
8580;SDS011;4328;48.622;9.230;2022-07-29T14:52:16;5.00;;;4.60;;
8580;SDS011;4328;48.622;9.230;2022-07-29T14:54:42;5.20;;;4.70;;
8580;SDS011;4328;48.622;9.230;2022-07-29T14:57:09;5.93;;;5.10;;
8580;SDS011;4328;48.622;9.230;2022-07-29T14:59:35;5.47;;;4.87;;
8580;SDS011;4328;48.622;9.230;2022-07-29T15:02:03;4.93;;;4.53;;
8580;SDS011;4328;48.622;9.230;2022-07-29T15:04:30;4.97;;;4.37;;
8580;SDS011;4328;48.622;9.230;2022-07-29T15:06:56;4.97;;;4.57;;
8580;SDS011;4328;48.622;9.230;2022-07-29T15:09:23;5.53;;;4.97;;
8580;SDS011;4328;48.622;9.230;2022-07-29T15:11:50;5.70;;;5.07;;
8580;SDS011;4328;48.622;9.230;2022-07-29T15:14:16;5.23;;;4.73;;
8580;SDS011;4328;48.622;9.230;2022-07-29T15:16:43;5.10;;;4.30;;
8580;SDS011;4328;48.622;9.230;2022-07-29T15:19:11;4.73;;;4.03;;
8580;SDS011;4328;48.622;9.230;2022-07-29T15:21:38;5.23;;;4.47;;
8580;SDS011;4328;48.622;9.230;2022-07-29T15:24:05;4.73;;;4.03;;
8580;SDS011;4328;48.622;9.230;2022-07-29T15:26:32;4.37;;;4.07;;
8580;SDS011;4328;48.622;9.230;2022-07-29T15:28:59;4.13;;;3.83;;
8580;SDS011;4328;48.622;9.230;2022-07-29T15:31:26;4.93;;;4.00;;
8580;SDS011;4328;48.622;9.230;2022-07-29T15:33:52;4.23;;;3.93;;
8580;SDS011;4328;48.622;9.230;2022-07-29T15:36:20;5.93;;;3.73;;
8580;SDS011;4328;48.622;9.230;2022-07-29T15:38:47;4.00;;;3.80;;